createdAt,value
2023-01-03T00:00:19.454Z,25.21
2023-01-03T00:02:50.385Z,25.20
2023-01-03T00:05:20.270Z,25.17
2023-01-03T00:07:51.732Z,25.31
2023-01-03T00:10:23.300Z,25.41
2023-01-03T00:12:54.129Z,25.54
2023-01-03T00:15:24.411Z,25.61
2023-01-03T00:17:56.658Z,25.64
2023-01-03T00:20:26.989Z,25.69
2023-01-03T00:22:57.176Z,25.71
2023-01-03T00:25:28.683Z,25.69
2023-01-03T00:27:58.995Z,25.66
2023-01-03T00:30:28.846Z,25.72
2023-01-03T00:33:08.805Z,25.71
2023-01-03T00:35:39.750Z,25.69
2023-01-03T00:38:10.000Z,25.69
2023-01-03T00:40:40.379Z,25.71
2023-01-03T00:43:28.646Z,25.75
2023-01-03T00:46:00.385Z,25.76
2023-01-03T00:48:31.259Z,25.82
2023-01-03T00:51:16.240Z,25.78
2023-01-03T00:53:48.668Z,25.79
2023-01-03T00:56:21.907Z,25.82
2023-01-03T00:58:53.597Z,25.83
2023-01-03T01:01:29.919Z,25.71
2023-01-03T01:04:06.576Z,25.71
2023-01-03T01:06:41.349Z,25.71
2023-01-03T01:09:15.933Z,25.64
2023-01-03T01:11:46.734Z,25.59
2023-01-03T01:14:23.439Z,25.54
2023-01-03T01:16:58.217Z,25.51
2023-01-03T01:19:32.974Z,25.44
2023-01-03T01:22:03.263Z,25.45
2023-01-03T01:24:33.352Z,25.39
2023-01-03T01:27:03.950Z,25.37
2023-01-03T01:29:34.589Z,25.34
2023-01-03T01:32:04.620Z,25.31
2023-01-03T01:34:34.907Z,25.41
2023-01-03T01:37:06.346Z,25.59
2023-01-03T01:39:38.093Z,25.73
2023-01-03T01:42:32.430Z,25.66
2023-01-03T01:45:07.563Z,25.73
2023-01-03T01:47:45.860Z,25.82
2023-01-03T01:50:40.079Z,25.81
2023-01-03T01:53:16.407Z,25.78
2023-01-03T01:56:01.581Z,25.72
2023-01-03T01:58:38.035Z,25.58
2023-01-03T02:01:13.683Z,25.52
2023-01-03T02:03:48.584Z,25.39
2023-01-03T02:06:20.409Z,25.38
2023-01-03T02:08:51.292Z,25.31
2023-01-03T02:11:28.656Z,25.27
2023-01-03T02:14:16.823Z,25.24
2023-01-03T02:17:03.738Z,25.17
2023-01-03T02:19:43.139Z,25.04
2023-01-03T02:22:23.176Z,25.04
2023-01-03T02:25:34.483Z,25.08
2023-01-03T02:28:21.276Z,24.94
2023-01-03T02:30:56.504Z,24.87
2023-01-03T02:33:57.012Z,24.82
2023-01-03T02:36:51.498Z,24.80
2023-01-03T02:39:47.819Z,24.83
2023-01-03T02:42:56.775Z,24.80
2023-01-03T02:45:57.172Z,24.79
2023-01-03T02:48:34.722Z,24.77
2023-01-03T02:51:12.768Z,24.77
2023-01-03T02:53:48.317Z,24.70
2023-01-03T02:56:32.656Z,24.69
2023-01-03T02:59:08.559Z,24.75
2023-01-03T03:01:45.918Z,24.70
2023-01-03T03:04:18.391Z,24.66
2023-01-03T03:07:23.172Z,24.60
2023-01-03T03:10:11.324Z,24.59
2023-01-03T03:13:03.980Z,24.57
2023-01-03T03:15:52.174Z,24.52
2023-01-03T03:19:01.937Z,24.48
2023-01-03T03:21:55.064Z,24.46
2023-01-03T03:24:48.999Z,24.46
2023-01-03T03:27:43.258Z,24.51
2023-01-03T03:30:19.944Z,24.35
2023-01-03T03:32:53.610Z,24.30
2023-01-03T03:35:27.218Z,24.33
2023-01-03T03:38:00.729Z,24.30
2023-01-03T03:40:58.580Z,24.29
2023-01-03T03:43:56.888Z,24.33
2023-01-03T03:46:33.863Z,24.30
2023-01-03T03:49:31.928Z,24.25
2023-01-03T03:52:04.564Z,24.14
2023-01-03T03:54:38.350Z,24.08
2023-01-03T03:57:25.664Z,24.05
2023-01-03T04:00:06.568Z,24.02
2023-01-03T04:02:44.070Z,23.89
2023-01-03T04:05:19.205Z,23.91
2023-01-03T04:07:49.383Z,23.80
2023-01-03T04:10:24.004Z,23.74
2023-01-03T04:12:57.792Z,23.74
2023-01-03T04:15:28.352Z,23.75
2023-01-03T04:17:58.382Z,23.70
2023-01-03T04:20:29.008Z,23.68
2023-01-03T04:22:59.345Z,23.66
2023-01-03T04:25:29.861Z,23.64
2023-01-03T04:28:01.179Z,23.59
2023-01-03T04:30:31.230Z,23.57
2023-01-03T04:33:06.034Z,23.51
2023-01-03T04:35:37.113Z,23.47
2023-01-03T04:38:08.499Z,23.42
2023-01-03T04:40:40.029Z,23.49
2023-01-03T04:43:30.425Z,23.50
2023-01-03T04:46:00.672Z,23.56
2023-01-03T04:48:31.195Z,23.61
2023-01-03T04:51:02.315Z,23.75
2023-01-03T04:53:32.321Z,23.87
2023-01-03T04:56:02.226Z,23.97
2023-01-03T04:58:34.050Z,23.97
2023-01-03T05:01:06.951Z,23.94
2023-01-03T05:03:39.099Z,23.89
2023-01-03T05:06:10.572Z,23.89
2023-01-03T05:08:42.943Z,23.89
2023-01-03T05:11:13.447Z,23.89
2023-01-03T05:13:43.386Z,23.87
2023-01-03T05:16:16.067Z,23.81
2023-01-03T05:18:49.350Z,23.75
2023-01-03T05:21:40.276Z,23.74
2023-01-03T05:24:31.637Z,23.75
2023-01-03T05:27:05.734Z,23.66
2023-01-03T05:29:38.274Z,23.68
2023-01-03T05:32:08.941Z,23.57
2023-01-03T05:34:39.579Z,23.47
2023-01-03T05:37:09.577Z,23.51
2023-01-03T05:39:40.064Z,23.45
2023-01-03T05:42:10.326Z,23.30
2023-01-03T05:44:40.614Z,23.27
2023-01-03T05:47:10.300Z,23.26
2023-01-03T05:49:40.684Z,23.24
2023-01-03T05:52:12.009Z,23.15
2023-01-03T05:54:43.441Z,23.08
2023-01-03T05:57:13.397Z,23.09
2023-01-03T05:59:44.181Z,23.09
2023-01-03T06:02:14.854Z,22.96
2023-01-03T06:04:45.765Z,22.88
2023-01-03T06:07:18.187Z,22.82
2023-01-03T06:09:48.333Z,22.75
2023-01-03T06:12:18.141Z,22.75
2023-01-03T06:14:48.307Z,22.84
2023-01-03T06:17:36.736Z,22.85
2023-01-03T06:20:09.120Z,22.81
2023-01-03T06:22:39.341Z,22.76
2023-01-03T06:25:09.885Z,22.71
2023-01-03T06:27:41.410Z,22.76
2023-01-03T06:30:13.391Z,22.81
2023-01-03T06:32:43.999Z,22.89
2023-01-03T06:35:14.814Z,22.98
2023-01-03T06:37:44.978Z,23.01
2023-01-03T06:40:16.426Z,23.02
2023-01-03T06:42:46.901Z,22.98
2023-01-03T06:45:36.609Z,22.95
2023-01-03T06:48:27.237Z,22.95
2023-01-03T06:51:16.432Z,22.91
2023-01-03T06:53:46.949Z,22.92
2023-01-03T06:56:17.393Z,22.88
2023-01-03T06:58:47.129Z,22.94
2023-01-03T07:01:18.142Z,22.94
2023-01-03T07:03:49.710Z,22.87
2023-01-03T07:06:19.883Z,22.78
2023-01-03T07:08:49.608Z,22.69
2023-01-03T07:11:20.881Z,22.58
2023-01-03T07:14:01.940Z,22.54
2023-01-03T07:16:34.816Z,22.52
2023-01-03T07:19:07.331Z,22.44
2023-01-03T07:21:38.594Z,22.39
2023-01-03T07:24:10.274Z,22.31
2023-01-03T07:26:41.738Z,22.36
2023-01-03T07:29:12.485Z,22.33
2023-01-03T07:31:43.081Z,22.29
2023-01-03T07:34:14.708Z,22.24
2023-01-03T07:36:46.292Z,22.20
2023-01-03T07:39:16.513Z,22.16
2023-01-03T07:42:04.534Z,22.10
2023-01-03T07:44:35.167Z,21.97
2023-01-03T07:47:05.373Z,21.89
2023-01-03T07:49:36.581Z,21.81
2023-01-03T07:52:07.141Z,21.79
2023-01-03T07:54:37.551Z,21.71
2023-01-03T07:57:07.810Z,21.65
2023-01-03T07:59:38.758Z,21.61
2023-01-03T08:02:10.246Z,21.58
2023-01-03T08:04:43.451Z,21.54
2023-01-03T08:07:14.732Z,21.52
2023-01-03T08:10:03.400Z,21.48
2023-01-03T08:12:52.283Z,21.45
2023-01-03T08:15:22.972Z,21.48
2023-01-03T08:17:54.122Z,21.56
2023-01-03T08:20:24.362Z,21.56
2023-01-03T08:22:54.160Z,21.59
2023-01-03T08:25:24.307Z,21.61
2023-01-03T08:27:54.558Z,21.62
2023-01-03T08:30:26.124Z,21.63
2023-01-03T08:32:57.998Z,21.69
2023-01-03T08:35:32.837Z,21.71
2023-01-03T08:38:04.965Z,21.72
2023-01-03T08:40:41.916Z,21.76
2023-01-03T08:43:14.815Z,21.76
2023-01-03T08:45:45.595Z,21.78
2023-01-03T08:48:15.784Z,21.79
2023-01-03T08:50:47.825Z,21.79
2023-01-03T08:53:18.113Z,21.82
2023-01-03T08:55:47.808Z,21.82
2023-01-03T08:58:18.461Z,21.88
2023-01-03T09:00:49.325Z,21.88
2023-01-03T09:03:20.608Z,21.93
2023-01-03T09:05:50.399Z,21.96
2023-01-03T09:08:21.168Z,22.09
2023-01-03T09:10:51.383Z,22.23
2023-01-03T09:13:22.131Z,22.27
2023-01-03T09:15:53.955Z,22.40
2023-01-03T09:18:24.125Z,22.48
2023-01-03T09:20:55.233Z,22.58
2023-01-03T09:23:26.594Z,22.62
2023-01-03T09:25:58.253Z,22.61
2023-01-03T09:28:28.543Z,22.64
2023-01-03T09:30:58.648Z,22.62
2023-01-03T09:33:29.025Z,22.68
2023-01-03T09:36:01.557Z,22.73
2023-01-03T09:38:31.911Z,22.79
2023-01-03T09:41:08.925Z,22.88
2023-01-03T09:43:46.209Z,22.92
2023-01-03T09:46:25.672Z,22.99
2023-01-03T09:48:57.152Z,22.89
2023-01-03T09:52:05.222Z,22.79
2023-01-03T09:54:59.857Z,22.79
2023-01-03T09:57:49.143Z,22.87
2023-01-03T10:00:54.838Z,22.82
2023-01-03T10:03:51.601Z,22.94
2023-01-03T10:06:58.609Z,23.03
2023-01-03T10:09:43.721Z,22.94
2023-01-03T10:12:46.775Z,22.96
2023-01-03T10:15:23.542Z,23.08
2023-01-03T10:18:35.533Z,23.31
2023-01-03T10:21:50.771Z,23.54
2023-01-03T10:24:27.245Z,23.66
2023-01-03T10:27:07.573Z,24.17
2023-01-03T10:29:40.130Z,24.11
2023-01-03T10:32:50.528Z,24.25
2023-01-03T10:35:26.337Z,24.46
2023-01-03T10:37:58.655Z,24.46
2023-01-03T10:40:37.649Z,24.32
2023-01-03T10:43:20.764Z,24.12
2023-01-03T10:46:03.995Z,24.07
2023-01-03T10:51:43.109Z,24.05
2023-01-03T10:54:20.605Z,24.19
2023-01-03T10:56:51.264Z,24.19
2023-01-03T10:59:25.813Z,24.21
2023-01-03T11:02:16.195Z,24.22
2023-01-03T11:04:47.892Z,24.43
2023-01-03T11:07:19.080Z,24.63
2023-01-03T11:09:53.950Z,24.88
2023-01-03T11:12:42.801Z,25.23
2023-01-03T11:15:46.402Z,26.07
2023-01-03T11:18:24.442Z,26.22
2023-01-03T11:21:08.760Z,26.12
2023-01-03T11:24:14.352Z,26.78
2023-01-03T11:27:05.913Z,27.26
2023-01-03T11:29:43.025Z,27.73
2023-01-03T11:32:31.550Z,27.77
2023-01-03T11:35:24.877Z,27.01
2023-01-03T11:38:23.696Z,27.46
2023-01-03T11:41:01.837Z,27.57
2023-01-03T11:43:56.071Z,28.32
2023-01-03T11:47:00.315Z,28.83
2023-01-03T11:49:38.088Z,28.99
2023-01-03T11:52:29.757Z,27.98
2023-01-03T11:55:19.051Z,27.32
2023-01-03T11:58:16.284Z,26.41
2023-01-03T12:01:11.829Z,26.41
2023-01-03T12:03:57.246Z,26.51
2023-01-03T12:06:36.254Z,26.41
2023-01-03T12:09:51.237Z,25.99
2023-01-03T12:13:08.480Z,26.07
2023-01-03T12:15:45.934Z,25.57
2023-01-03T12:18:39.229Z,25.15
2023-01-03T12:21:24.033Z,24.96
2023-01-03T12:24:09.586Z,25.04
2023-01-03T12:26:44.370Z,25.10
2023-01-03T12:29:27.187Z,25.28
2023-01-03T12:32:08.971Z,25.61
2023-01-03T12:35:00.488Z,25.94
2023-01-03T12:37:40.356Z,26.74
2023-01-03T12:40:23.730Z,26.70
2023-01-03T12:43:10.931Z,27.23
2023-01-03T12:46:12.664Z,27.78
2023-01-03T12:49:04.770Z,28.49
2023-01-03T12:51:35.149Z,27.25
2023-01-03T12:54:18.277Z,27.08
2023-01-03T12:56:58.053Z,27.43
2023-01-03T13:00:07.297Z,27.96
2023-01-03T13:02:43.747Z,28.86
2023-01-03T13:05:29.967Z,29.50
2023-01-03T13:08:23.893Z,29.83
2023-01-03T13:10:55.965Z,28.59
2023-01-03T13:13:27.302Z,28.08
2023-01-03T13:15:58.372Z,27.59
2023-01-03T13:18:35.905Z,27.25
2023-01-03T13:21:58.189Z,27.20
2023-01-03T13:24:49.274Z,27.66
2023-01-03T13:27:25.678Z,27.76
2023-01-03T13:30:02.005Z,28.48
2023-01-03T13:33:14.868Z,29.52
2023-01-03T13:35:51.023Z,30.12
2023-01-03T13:38:25.225Z,29.11
2023-01-03T13:41:17.606Z,29.95
2023-01-03T13:43:53.099Z,29.37
2023-01-03T13:46:25.958Z,29.08
2023-01-03T13:59:04.786Z,27.81
2023-01-03T14:02:19.895Z,28.34
2023-01-03T14:05:42.094Z,29.30
2023-01-03T14:08:31.755Z,30.91
2023-01-03T14:11:26.563Z,30.71
2023-01-03T14:14:07.785Z,29.99
2023-01-03T14:16:55.715Z,30.34
2023-01-03T14:19:31.397Z,29.52
2023-01-03T14:22:40.169Z,30.09
2023-01-03T14:25:44.742Z,30.98
2023-01-03T14:28:27.987Z,30.44
2023-01-03T14:30:59.214Z,31.30
2023-01-03T14:33:42.396Z,32.23
2023-01-03T14:36:19.940Z,31.76
2023-01-03T14:38:54.983Z,31.22
2023-01-03T14:41:29.839Z,30.77
2023-01-03T14:44:04.525Z,30.91
2023-01-03T14:46:36.711Z,30.23
2023-01-03T14:49:18.596Z,31.35
2023-01-03T14:51:50.217Z,32.29
2023-01-03T14:54:21.903Z,31.16
2023-01-03T14:56:52.541Z,30.34
2023-01-03T14:59:25.198Z,31.49
2023-01-03T15:01:55.863Z,31.36
2023-01-03T15:04:27.564Z,30.37
2023-01-03T15:07:09.499Z,29.96
2023-01-03T15:09:43.815Z,31.77
2023-01-03T15:12:16.957Z,32.27
2023-01-03T15:14:47.826Z,32.64
2023-01-03T15:17:20.607Z,31.38
2023-01-03T15:19:57.585Z,30.80
2023-01-03T15:22:41.483Z,31.63
2023-01-03T15:25:29.171Z,32.23
2023-01-03T15:28:26.191Z,33.09
2023-01-03T15:31:14.568Z,33.62
2023-01-03T15:33:46.181Z,33.47
2023-01-03T15:36:19.453Z,33.50
2023-01-03T15:38:51.481Z,34.02
2023-01-03T15:42:12.684Z,34.15
2023-01-03T15:58:27.898Z,31.84
2023-01-03T16:01:01.384Z,32.06
2023-01-03T16:03:34.348Z,32.87
2023-01-03T16:06:05.599Z,33.46
2023-01-03T16:08:38.755Z,34.46
2023-01-03T16:11:26.747Z,34.25
2023-01-03T16:14:05.186Z,34.43
2023-01-03T16:16:42.165Z,34.96
2023-01-03T16:19:34.711Z,35.33
2023-01-03T16:22:33.814Z,35.35
2023-01-03T16:24:58.277Z,35.14
2023-01-03T16:27:28.663Z,34.39
2023-01-03T16:29:58.516Z,34.76
2023-01-03T16:32:31.688Z,33.64
2023-01-03T16:35:06.316Z,34.12
2023-01-03T16:37:37.554Z,34.70
2023-01-03T16:40:19.546Z,33.77
2023-01-03T16:42:50.173Z,32.11
2023-01-03T16:45:20.803Z,30.98
2023-01-03T16:47:55.043Z,31.81
2023-01-03T16:50:26.257Z,33.87
2023-01-03T16:52:58.726Z,35.52
2023-01-03T16:55:33.342Z,34.18
2023-01-03T16:58:05.212Z,33.39
2023-01-03T17:00:37.991Z,32.54
2023-01-03T17:03:09.732Z,31.91
2023-01-03T17:05:40.721Z,32.31
2023-01-03T17:08:17.976Z,31.30
2023-01-03T17:10:50.379Z,31.19
2023-01-03T17:13:38.049Z,33.43
2023-01-03T17:16:17.106Z,34.13
2023-01-03T17:18:48.395Z,34.56
2023-01-03T17:21:25.996Z,34.83
2023-01-03T17:24:08.683Z,34.13
2023-01-03T17:26:39.454Z,33.95
2023-01-03T17:29:18.047Z,33.37
2023-01-03T17:31:48.649Z,33.49
2023-01-03T17:34:33.185Z,32.56
2023-01-03T17:37:03.880Z,31.84
2023-01-03T17:39:35.161Z,32.16
2023-01-03T17:42:18.093Z,32.28
2023-01-03T17:45:10.043Z,33.07
2023-01-03T17:48:03.834Z,34.25
2023-01-03T17:50:34.697Z,34.64
2023-01-03T17:53:04.491Z,34.61
2023-01-03T17:55:35.153Z,33.72
2023-01-03T17:58:07.235Z,32.64
2023-01-03T18:00:38.511Z,32.83
2023-01-03T18:03:09.795Z,32.65
2023-01-03T18:05:40.410Z,32.45
2023-01-03T18:08:19.784Z,32.38
2023-01-03T18:10:55.144Z,31.90
2023-01-03T18:13:30.965Z,32.54
2023-01-03T18:16:01.504Z,33.27
2023-01-03T18:18:32.701Z,33.61
2023-01-03T18:21:03.958Z,32.55
2023-01-03T18:23:39.048Z,32.01
2023-01-03T18:26:14.398Z,31.78
2023-01-03T18:28:44.931Z,30.92
2023-01-03T18:31:20.987Z,30.81
2023-01-03T18:33:51.730Z,29.90
2023-01-03T18:36:29.413Z,29.31
2023-01-03T18:39:15.619Z,29.64
2023-01-03T18:41:47.346Z,30.80
2023-01-03T18:44:26.961Z,31.33
2023-01-03T18:46:57.270Z,31.80
2023-01-03T18:49:27.098Z,31.66
2023-01-03T18:51:59.679Z,30.54
2023-01-03T18:54:30.387Z,29.69
2023-01-03T18:57:00.555Z,29.72
2023-01-03T18:59:30.941Z,29.86
2023-01-03T19:02:00.780Z,29.81
2023-01-03T19:04:31.340Z,29.50
2023-01-03T19:07:01.661Z,29.47
2023-01-03T19:09:33.900Z,29.43
2023-01-03T19:12:04.831Z,29.34
2023-01-03T19:14:35.121Z,29.23
2023-01-03T19:17:15.894Z,29.21
2023-01-03T19:19:47.252Z,29.31
2023-01-03T19:22:26.687Z,29.25
2023-01-03T19:25:10.974Z,29.00
2023-01-03T19:27:46.265Z,28.69
2023-01-03T19:33:20.094Z,28.29
2023-01-03T19:35:50.965Z,28.04
2023-01-03T19:38:21.384Z,28.09
2023-01-03T19:40:51.692Z,28.12
2023-01-03T19:43:24.707Z,28.07
2023-01-03T19:45:55.255Z,27.93
2023-01-03T19:48:30.522Z,28.05
2023-01-03T19:51:02.955Z,27.84
2023-01-03T19:53:33.395Z,27.80
2023-01-03T19:56:18.093Z,27.87
2023-01-03T19:58:50.419Z,27.97
2023-01-03T20:01:21.460Z,27.84
2023-01-03T20:03:52.006Z,27.59
2023-01-03T20:06:21.990Z,27.45
2023-01-03T20:08:55.177Z,27.30
2023-01-03T20:11:26.418Z,27.20
2023-01-03T20:13:57.278Z,27.29
2023-01-03T20:16:30.001Z,27.20
2023-01-03T20:19:01.841Z,27.15
2023-01-03T20:21:34.154Z,27.08
2023-01-03T20:24:09.577Z,26.98
2023-01-03T20:26:41.210Z,26.75
2023-01-03T20:29:13.125Z,26.62
2023-01-03T20:31:43.650Z,26.47
2023-01-03T20:34:14.620Z,26.37
2023-01-03T20:36:52.313Z,26.20
2023-01-03T20:39:32.394Z,26.06
2023-01-03T20:42:04.172Z,25.97
2023-01-03T20:44:34.623Z,25.86
2023-01-03T20:47:05.440Z,25.71
2023-01-03T20:49:36.301Z,25.62
2023-01-03T20:52:06.571Z,25.52
2023-01-03T20:54:37.634Z,25.46
2023-01-03T20:57:16.013Z,25.42
2023-01-03T20:59:46.713Z,25.39
2023-01-03T21:02:16.547Z,25.34
2023-01-03T21:04:47.648Z,25.30
2023-01-03T21:07:28.756Z,25.27
2023-01-03T21:09:59.501Z,25.14
2023-01-03T21:12:37.002Z,25.11
2023-01-03T21:15:08.989Z,25.11
2023-01-03T21:17:41.591Z,25.04
2023-01-03T21:20:22.553Z,25.00
2023-01-03T21:22:53.220Z,25.06
2023-01-03T21:25:30.320Z,24.94
2023-01-03T21:28:01.799Z,24.86
2023-01-03T21:30:34.228Z,24.80
2023-01-03T21:33:04.753Z,24.67
2023-01-03T21:35:35.551Z,24.57
2023-01-03T21:38:06.095Z,24.57
2023-01-03T21:40:36.595Z,24.51
2023-01-03T21:43:08.267Z,24.38
2023-01-03T21:45:47.204Z,24.24
2023-01-03T21:48:20.880Z,24.14
2023-01-03T21:50:51.747Z,24.02
2023-01-03T21:53:24.626Z,23.97
2023-01-03T21:55:54.777Z,23.93
2023-01-03T21:58:25.609Z,23.94
2023-01-03T22:00:56.692Z,23.85
2023-01-03T22:03:45.888Z,23.82
2023-01-03T22:06:16.184Z,23.77
2023-01-03T22:08:46.139Z,23.70
2023-01-03T22:11:16.319Z,23.66
2023-01-03T22:13:46.533Z,23.71
2023-01-03T22:16:18.237Z,23.63
2023-01-03T22:18:48.823Z,23.57
2023-01-03T22:21:18.742Z,23.51
2023-01-03T22:23:49.357Z,23.64
2023-01-03T22:26:20.358Z,23.67
2023-01-03T22:28:50.903Z,23.59
2023-01-03T22:31:25.695Z,23.43
2023-01-03T22:33:56.678Z,23.40
2023-01-03T22:36:27.119Z,23.33
2023-01-03T22:38:58.311Z,23.20
2023-01-03T22:41:28.744Z,23.20
2023-01-03T22:44:03.588Z,23.22
2023-01-03T22:46:34.633Z,23.27
2023-01-03T22:49:04.931Z,23.27
2023-01-03T22:51:35.258Z,23.26
2023-01-03T22:54:06.412Z,23.19
2023-01-03T22:56:37.963Z,23.18
2023-01-03T22:59:10.436Z,23.12
2023-01-03T23:01:40.966Z,23.12
2023-01-03T23:04:11.146Z,22.98
2023-01-03T23:06:42.178Z,22.98
2023-01-03T23:09:13.809Z,22.85
2023-01-03T23:12:19.011Z,22.85
2023-01-03T23:14:50.204Z,22.75
2023-01-03T23:17:59.883Z,22.68
2023-01-03T23:20:34.668Z,22.62
2023-01-03T23:23:05.713Z,22.54
2023-01-03T23:25:39.295Z,22.58
2023-01-03T23:28:10.491Z,22.55
2023-01-03T23:30:41.554Z,22.50
2023-01-03T23:33:11.902Z,22.41
2023-01-03T23:35:41.658Z,22.40
2023-01-03T23:38:12.625Z,22.41
2023-01-03T23:40:44.445Z,22.31
2023-01-03T23:43:16.688Z,22.37
2023-01-03T23:45:46.610Z,22.39
2023-01-03T23:48:16.467Z,22.29
2023-01-03T23:50:46.813Z,22.18
2023-01-03T23:53:16.990Z,22.07
2023-01-03T23:55:47.801Z,22.10
2023-01-03T23:58:17.509Z,22.06
